createdAt,value
2023-04-12T00:00:04.197Z,27.84
2023-04-12T00:01:06.695Z,27.83
2023-04-12T00:02:08.853Z,27.85
2023-04-12T00:03:10.947Z,27.85
2023-04-12T00:04:14.814Z,27.85
2023-04-12T00:05:16.798Z,27.86
2023-04-12T00:06:19.055Z,27.87
2023-04-12T00:07:24.931Z,27.86
2023-04-12T00:08:33.064Z,27.86
2023-04-12T00:09:36.456Z,27.88
2023-04-12T00:10:38.481Z,27.85
2023-04-12T00:11:40.379Z,27.87
2023-04-12T00:12:42.331Z,27.86
2023-04-12T00:13:44.198Z,27.87
2023-04-12T00:14:47.159Z,27.87
2023-04-12T00:15:49.559Z,27.86
2023-04-12T00:16:51.684Z,27.86
2023-04-12T00:17:53.787Z,27.87
2023-04-12T00:18:55.716Z,27.87
2023-04-12T00:19:57.597Z,27.87
2023-04-12T00:20:59.460Z,27.85
2023-04-12T00:22:01.434Z,27.85
2023-04-12T00:23:03.578Z,27.86
2023-04-12T00:24:05.733Z,27.87
2023-04-12T00:25:08.689Z,27.86
2023-04-12T00:26:10.625Z,27.86
2023-04-12T00:27:12.513Z,27.83
2023-04-12T00:28:16.141Z,27.88
2023-04-12T00:29:18.213Z,27.85
2023-04-12T00:30:21.029Z,27.85
2023-04-12T00:31:23.068Z,27.85
2023-04-12T00:32:24.997Z,27.85
2023-04-12T00:33:26.863Z,27.84
2023-04-12T00:34:28.955Z,27.84
2023-04-12T00:35:31.132Z,27.81
2023-04-12T00:36:33.156Z,27.83
2023-04-12T00:37:36.653Z,27.83
2023-04-12T00:38:38.461Z,27.83
2023-04-12T00:39:40.356Z,27.80
2023-04-12T00:40:43.745Z,27.81
2023-04-12T00:41:45.579Z,27.82
2023-04-12T00:42:47.485Z,27.80
2023-04-12T00:43:49.830Z,27.80
2023-04-12T00:44:51.877Z,27.79
2023-04-12T00:45:58.046Z,27.81
2023-04-12T00:47:00.829Z,27.80
2023-04-12T00:48:03.787Z,27.80
2023-04-12T00:49:06.573Z,27.79
2023-04-12T00:50:09.789Z,27.77
2023-04-12T00:51:11.703Z,27.79
2023-04-12T00:52:15.628Z,27.80
2023-04-12T00:53:18.825Z,27.77
2023-04-12T00:54:22.435Z,27.78
2023-04-12T00:55:24.544Z,27.78
2023-04-12T00:56:28.456Z,27.75
2023-04-12T00:57:39.895Z,27.81
2023-04-12T00:58:41.884Z,27.76
2023-04-12T00:59:43.674Z,27.75
2023-04-12T01:00:50.512Z,27.76
2023-04-12T01:01:54.139Z,27.75
2023-04-12T01:02:57.043Z,27.76
2023-04-12T01:04:04.728Z,27.73
2023-04-12T01:05:08.872Z,27.76
2023-04-12T01:06:29.912Z,27.79
2023-04-12T01:08:00.819Z,27.81
2023-04-12T01:09:20.551Z,27.77
2023-04-12T01:10:35.634Z,27.77
2023-04-12T01:12:06.611Z,27.79
2023-04-12T01:13:33.158Z,27.77
2023-04-12T01:15:07.386Z,27.81
2023-04-12T01:16:26.417Z,27.76
2023-04-12T01:17:37.950Z,27.70
2023-04-12T01:18:50.696Z,27.71
2023-04-12T01:20:17.243Z,27.71
2023-04-12T01:21:52.897Z,27.73
2023-04-12T01:23:34.935Z,27.76
2023-04-12T01:24:59.489Z,27.72
2023-04-12T01:26:34.725Z,27.70
2023-04-12T01:28:01.256Z,27.66
2023-04-12T01:29:10.266Z,27.64
2023-04-12T01:30:17.023Z,27.62
2023-04-12T01:31:21.641Z,27.61
2023-04-12T01:32:24.182Z,27.58
2023-04-12T01:33:31.669Z,27.57
2023-04-12T01:34:36.477Z,27.60
2023-04-12T01:35:39.880Z,27.56
2023-04-12T01:36:46.392Z,27.61
2023-04-12T01:37:48.863Z,27.57
2023-04-12T01:38:52.018Z,27.57
2023-04-12T01:39:54.482Z,27.55
2023-04-12T01:40:56.428Z,27.58
2023-04-12T01:41:58.269Z,27.56
2023-04-12T01:43:14.050Z,27.60
2023-04-12T01:44:17.463Z,27.58
2023-04-12T01:45:19.706Z,27.57
2023-04-12T01:46:23.929Z,27.56
2023-04-12T01:47:27.194Z,27.58
2023-04-12T01:48:29.203Z,27.58
2023-04-12T01:49:47.816Z,27.60
2023-04-12T01:51:06.352Z,27.62
2023-04-12T01:52:23.424Z,27.63
2023-04-12T01:53:28.035Z,27.60
2023-04-12T01:54:37.040Z,27.60
2023-04-12T01:55:46.176Z,27.58
2023-04-12T01:56:58.095Z,27.62
2023-04-12T01:58:03.495Z,27.59
2023-04-12T01:59:07.343Z,27.57
2023-04-12T02:00:11.836Z,27.58
2023-04-12T02:01:16.269Z,27.56
2023-04-12T02:02:19.446Z,27.57
2023-04-12T02:03:24.384Z,27.57
2023-04-12T02:04:28.248Z,27.57
2023-04-12T02:05:31.282Z,27.54
2023-04-12T02:06:34.572Z,27.55
2023-04-12T02:07:37.582Z,27.56
2023-04-12T02:08:40.020Z,27.56
2023-04-12T02:09:41.840Z,27.56
2023-04-12T02:10:43.624Z,27.55
2023-04-12T02:11:49.871Z,27.56
2023-04-12T02:12:51.735Z,27.54
2023-04-12T02:13:53.674Z,27.54
2023-04-12T02:14:57.125Z,27.54
2023-04-12T02:15:59.148Z,27.54
2023-04-12T02:17:02.539Z,27.55
2023-04-12T02:18:04.671Z,27.55
2023-04-12T02:19:08.336Z,27.54
2023-04-12T02:20:12.030Z,27.54
2023-04-12T02:21:14.130Z,27.55
2023-04-12T02:22:16.960Z,27.53
2023-04-12T02:23:18.807Z,27.52
2023-04-12T02:24:21.392Z,27.52
2023-04-12T02:25:23.352Z,27.51
2023-04-12T02:26:25.736Z,27.51
2023-04-12T02:27:27.557Z,27.50
2023-04-12T02:28:29.540Z,27.51
2023-04-12T02:29:31.838Z,27.51
2023-04-12T02:30:33.935Z,27.50
2023-04-12T02:31:38.955Z,27.51
2023-04-12T02:32:46.885Z,27.50
2023-04-12T02:33:49.058Z,27.49
2023-04-12T02:34:53.675Z,27.51
2023-04-12T02:35:57.151Z,27.49
2023-04-12T02:36:59.156Z,27.48
2023-04-12T02:38:01.010Z,27.49
2023-04-12T02:39:02.966Z,27.48
2023-04-12T02:40:06.883Z,27.48
2023-04-12T02:41:08.747Z,27.48
2023-04-12T02:42:10.760Z,27.49
2023-04-12T02:43:12.675Z,27.44
2023-04-12T02:44:14.590Z,27.48
2023-04-12T02:45:16.465Z,27.47
2023-04-12T02:46:24.476Z,27.48
2023-04-12T02:47:29.124Z,27.47
2023-04-12T02:48:31.002Z,27.47
2023-04-12T02:49:33.026Z,27.48
2023-04-12T02:50:38.175Z,27.47
2023-04-12T02:51:40.076Z,27.48
2023-04-12T02:52:41.934Z,27.45
2023-04-12T02:53:43.860Z,27.47
2023-04-12T02:54:46.174Z,27.44
2023-04-12T02:55:48.181Z,27.44
2023-04-12T02:56:49.970Z,27.42
2023-04-12T02:57:51.779Z,27.42
2023-04-12T02:58:53.719Z,27.43
2023-04-12T02:59:55.657Z,27.44
2023-04-12T03:01:00.482Z,27.43
2023-04-12T03:02:02.471Z,27.43
2023-04-12T03:03:05.005Z,27.41
2023-04-12T03:04:07.801Z,27.43
2023-04-12T03:05:10.963Z,27.40
2023-04-12T03:06:13.629Z,27.41
2023-04-12T03:07:17.267Z,27.41
2023-04-12T03:08:19.723Z,27.39
2023-04-12T03:09:21.625Z,27.40
2023-04-12T03:10:23.868Z,27.38
2023-04-12T03:11:25.899Z,27.41
2023-04-12T03:12:28.810Z,27.37
2023-04-12T03:13:31.268Z,27.40
2023-04-12T03:14:33.165Z,27.41
2023-04-12T03:15:35.432Z,27.39
2023-04-12T03:16:37.653Z,27.37
2023-04-12T03:17:39.536Z,27.37
2023-04-12T03:18:41.400Z,27.35
2023-04-12T03:19:43.448Z,27.37
2023-04-12T03:20:47.634Z,27.38
2023-04-12T03:21:49.941Z,27.38
2023-04-12T03:22:51.816Z,27.37
2023-04-12T03:23:53.817Z,27.38
2023-04-12T03:24:55.703Z,27.34
2023-04-12T03:25:58.175Z,27.37
2023-04-12T03:27:02.241Z,27.36
2023-04-12T03:28:04.369Z,27.36
2023-04-12T03:29:09.566Z,27.35
2023-04-12T03:30:13.824Z,27.36
2023-04-12T03:31:20.609Z,27.36
2023-04-12T03:32:24.281Z,27.34
2023-04-12T03:33:27.346Z,27.33
2023-04-12T03:34:32.466Z,27.34
2023-04-12T03:35:34.448Z,27.33
2023-04-12T03:36:36.332Z,27.35
2023-04-12T03:37:43.180Z,27.35
2023-04-12T03:38:45.332Z,27.33
2023-04-12T03:39:48.407Z,27.32
2023-04-12T03:40:50.972Z,27.34
2023-04-12T03:41:53.672Z,27.32
2023-04-12T03:42:55.629Z,27.32
2023-04-12T03:43:57.765Z,27.32
2023-04-12T03:44:59.817Z,27.30
2023-04-12T03:46:06.630Z,27.31
2023-04-12T03:47:08.897Z,27.31
2023-04-12T03:48:12.317Z,27.31
2023-04-12T03:49:14.469Z,27.29
2023-04-12T03:50:16.413Z,27.29
2023-04-12T03:51:18.527Z,27.29
2023-04-12T03:52:20.713Z,27.29
2023-04-12T03:53:22.842Z,27.28
2023-04-12T03:54:25.130Z,27.28
2023-04-12T03:55:27.102Z,27.29
2023-04-12T03:56:28.932Z,27.30
2023-04-12T03:57:30.920Z,27.29
2023-04-12T03:58:34.000Z,27.28
2023-04-12T03:59:36.052Z,27.30
2023-04-12T04:00:37.911Z,27.29
2023-04-12T04:01:39.971Z,27.29
2023-04-12T04:02:42.073Z,27.28
2023-04-12T04:03:46.587Z,27.28
2023-04-12T04:04:48.961Z,27.29
2023-04-12T04:05:50.915Z,27.26
2023-04-12T04:06:53.073Z,27.25
2023-04-12T04:07:54.933Z,27.26
2023-04-12T04:09:00.829Z,27.28
2023-04-12T04:10:03.303Z,27.27
2023-04-12T04:12:09.312Z,27.25
2023-04-12T04:13:11.163Z,27.26
2023-04-12T04:14:13.512Z,27.25
2023-04-12T04:15:15.906Z,27.24
2023-04-12T04:16:18.211Z,27.25
2023-04-12T04:17:20.269Z,27.26
2023-04-12T04:18:22.531Z,27.25
2023-04-12T04:19:24.485Z,27.25
2023-04-12T04:20:27.850Z,27.23
2023-04-12T04:21:32.979Z,27.24
2023-04-12T04:22:34.858Z,27.26
2023-04-12T04:23:39.980Z,27.22
2023-04-12T04:24:42.930Z,27.22
2023-04-12T04:25:45.645Z,27.24
2023-04-12T04:26:47.572Z,27.24
2023-04-12T04:27:49.618Z,27.22
2023-04-12T04:28:51.906Z,27.22
2023-04-12T04:29:53.715Z,27.21
2023-04-12T04:30:56.894Z,27.22
2023-04-12T04:31:59.539Z,27.21
2023-04-12T04:33:01.824Z,27.22
2023-04-12T04:34:05.520Z,27.22
2023-04-12T04:35:08.291Z,27.22
2023-04-12T04:36:11.116Z,27.20
2023-04-12T04:37:13.337Z,27.22
2023-04-12T04:38:16.022Z,27.20
2023-04-12T04:39:17.872Z,27.20
2023-04-12T04:40:21.612Z,27.21
2023-04-12T04:41:24.275Z,27.21
2023-04-12T04:42:26.493Z,27.21
2023-04-12T04:43:30.388Z,27.22
2023-04-12T04:44:36.105Z,27.20
2023-04-12T04:45:39.075Z,27.20
2023-04-12T04:46:41.209Z,27.18
2023-04-12T04:47:43.466Z,27.18
2023-04-12T04:48:45.659Z,27.18
2023-04-12T04:49:48.060Z,27.18
2023-04-12T04:50:51.807Z,27.18
2023-04-12T04:51:54.319Z,27.19
2023-04-12T04:52:56.161Z,27.19
2023-04-12T04:53:59.298Z,27.20
2023-04-12T04:55:02.443Z,27.19
2023-04-12T04:56:06.036Z,27.18
2023-04-12T04:57:11.915Z,27.18
2023-04-12T04:58:15.272Z,27.18
2023-04-12T04:59:18.445Z,27.18
2023-04-12T05:00:21.759Z,27.17
2023-04-12T05:01:28.838Z,27.18
2023-04-12T05:02:31.750Z,27.19
2023-04-12T05:03:42.776Z,27.19
2023-04-12T05:04:44.812Z,27.18
2023-04-12T05:05:52.103Z,27.20
2023-04-12T05:06:53.884Z,27.16
2023-04-12T05:07:56.625Z,27.17
2023-04-12T05:08:58.879Z,27.14
2023-04-12T05:10:01.175Z,27.16
2023-04-12T05:11:03.563Z,27.15
2023-04-12T05:12:06.283Z,27.14
2023-04-12T05:13:10.138Z,27.13
2023-04-12T05:14:12.704Z,27.15
2023-04-12T05:15:15.321Z,27.15
2023-04-12T05:16:17.193Z,27.14
2023-04-12T05:17:19.091Z,27.14
2023-04-12T05:18:21.540Z,27.14
2023-04-12T05:19:23.711Z,27.14
2023-04-12T05:20:25.808Z,27.15
2023-04-12T05:21:29.000Z,27.15
2023-04-12T05:22:31.141Z,27.13
2023-04-12T05:23:42.006Z,27.16
2023-04-12T05:24:43.843Z,27.15
2023-04-12T05:25:48.330Z,27.12
2023-04-12T05:26:52.108Z,27.13
2023-04-12T05:27:53.980Z,27.13
2023-04-12T05:28:56.045Z,27.13
2023-04-12T05:29:58.614Z,27.12
2023-04-12T05:31:00.681Z,27.14
2023-04-12T05:32:02.813Z,27.11
2023-04-12T05:33:04.776Z,27.12
2023-04-12T05:34:06.642Z,27.11
2023-04-12T05:35:08.986Z,27.12
2023-04-12T05:36:12.184Z,27.12
2023-04-12T05:37:14.061Z,27.12
2023-04-12T05:38:16.021Z,27.12
2023-04-12T05:39:20.518Z,27.10
2023-04-12T05:40:22.652Z,27.11
2023-04-12T05:41:24.571Z,27.11
2023-04-12T05:42:27.127Z,27.11
2023-04-12T05:43:29.194Z,27.10
2023-04-12T05:44:31.498Z,27.09
2023-04-12T05:45:33.381Z,27.08
2023-04-12T05:46:36.243Z,27.10
2023-04-12T05:47:38.239Z,27.10
2023-04-12T05:48:40.343Z,27.11
2023-04-12T05:49:42.201Z,27.12
2023-04-12T05:50:52.717Z,27.13
2023-04-12T05:51:54.844Z,27.11
2023-04-12T05:52:57.017Z,27.09
2023-04-12T05:53:58.872Z,27.07
2023-04-12T05:55:00.730Z,27.09
2023-04-12T05:56:02.843Z,27.07
2023-04-12T05:57:04.743Z,27.08
2023-04-12T05:58:06.931Z,27.08
2023-04-12T05:59:10.955Z,27.08
2023-04-12T06:00:16.941Z,27.09
2023-04-12T06:01:19.862Z,27.08
2023-04-12T06:02:22.803Z,27.07
2023-04-12T06:03:25.732Z,27.10
2023-04-12T06:04:41.973Z,27.08
2023-04-12T06:05:48.649Z,27.10
2023-04-12T06:06:50.631Z,27.07
2023-04-12T06:07:52.526Z,27.07
2023-04-12T06:08:54.335Z,27.05
2023-04-12T06:09:56.453Z,27.05
2023-04-12T06:10:58.273Z,27.04
2023-04-12T06:12:00.223Z,27.05
2023-04-12T06:13:02.261Z,27.05
2023-04-12T06:14:04.272Z,27.02
2023-04-12T06:15:07.370Z,27.06
2023-04-12T06:16:09.528Z,27.06
2023-04-12T06:17:11.352Z,27.04
2023-04-12T06:18:13.675Z,27.06
2023-04-12T06:19:15.526Z,27.03
2023-04-12T06:20:17.825Z,27.02
2023-04-12T06:21:20.452Z,27.03
2023-04-12T06:22:22.306Z,27.05
2023-04-12T06:23:24.192Z,27.02
2023-04-12T06:24:26.081Z,27.02
2023-04-12T06:25:27.977Z,27.01
2023-04-12T06:26:38.999Z,27.00
2023-04-12T06:27:42.231Z,27.03
2023-04-12T06:28:44.290Z,27.00
2023-04-12T06:29:46.205Z,27.00
2023-04-12T06:30:48.131Z,27.01
2023-04-12T06:31:50.219Z,27.00
2023-04-12T06:32:52.259Z,27.01
2023-04-12T06:33:54.212Z,27.01
2023-04-12T06:34:56.543Z,27.00
2023-04-12T06:35:58.727Z,27.00
2023-04-12T06:37:00.688Z,27.01
2023-04-12T06:38:02.814Z,27.02
2023-04-12T06:39:04.950Z,27.02
2023-04-12T06:40:08.482Z,27.00
2023-04-12T06:41:11.745Z,26.98
2023-04-12T06:42:14.810Z,27.00
2023-04-12T06:43:22.667Z,27.02
2023-04-12T06:44:26.306Z,27.00
2023-04-12T06:45:28.262Z,26.99
2023-04-12T06:46:30.788Z,26.98
2023-04-12T06:47:33.587Z,26.96
2023-04-12T06:48:35.435Z,26.95
2023-04-12T06:49:38.652Z,26.98
2023-04-12T06:50:40.550Z,26.97
2023-04-12T06:51:42.351Z,26.97
2023-04-12T06:52:44.377Z,26.95
2023-04-12T06:53:46.275Z,26.93
2023-04-12T06:54:48.257Z,26.94
2023-04-12T06:55:50.448Z,26.93
2023-04-12T06:56:52.295Z,26.86
2023-04-12T06:57:54.301Z,26.92
2023-04-12T06:58:57.202Z,26.93
2023-04-12T06:59:59.440Z,26.96
2023-04-12T07:01:10.772Z,26.99
2023-04-12T07:02:12.781Z,26.97
2023-04-12T07:03:14.775Z,26.97
2023-04-12T07:04:16.972Z,26.96
2023-04-12T07:05:19.049Z,26.97
2023-04-12T07:06:25.527Z,26.97
2023-04-12T07:07:28.329Z,26.98
2023-04-12T07:08:30.930Z,26.98
2023-04-12T07:09:33.147Z,26.96
2023-04-12T07:10:36.353Z,26.97
2023-04-12T07:11:38.467Z,26.98
2023-04-12T07:12:40.418Z,26.98
2023-04-12T07:13:42.418Z,26.98
2023-04-12T07:14:44.822Z,26.97
2023-04-12T07:15:47.293Z,26.97
2023-04-12T07:16:49.542Z,26.98
2023-04-12T07:17:51.877Z,26.96
2023-04-12T07:18:53.918Z,26.98
2023-04-12T07:19:56.126Z,26.97
2023-04-12T07:20:59.181Z,26.94
2023-04-12T07:22:01.129Z,26.97
2023-04-12T07:23:03.362Z,26.97
2023-04-12T07:24:05.857Z,26.98
2023-04-12T07:25:10.856Z,26.99
2023-04-12T07:26:12.844Z,27.00
2023-04-12T07:27:15.087Z,26.99
2023-04-12T07:28:17.107Z,26.99
2023-04-12T07:29:19.381Z,26.98
2023-04-12T07:30:21.498Z,26.98
2023-04-12T07:31:24.160Z,26.98
2023-04-12T07:32:26.185Z,26.99
2023-04-12T07:33:28.440Z,26.99
2023-04-12T07:34:31.389Z,26.99
2023-04-12T07:35:34.038Z,26.98
2023-04-12T07:36:35.911Z,26.98
2023-04-12T07:37:38.086Z,26.98
2023-04-12T07:38:39.931Z,26.98
2023-04-12T07:39:41.820Z,26.98
2023-04-12T07:40:43.922Z,26.96
2023-04-12T07:41:46.659Z,26.98
2023-04-12T07:42:48.466Z,26.99
2023-04-12T07:43:51.125Z,26.98
2023-04-12T07:44:53.168Z,26.98
2023-04-12T07:45:56.398Z,26.96
2023-04-12T07:46:58.440Z,26.99
2023-04-12T07:48:00.510Z,26.98
2023-04-12T07:49:02.694Z,26.98
2023-04-12T07:50:05.781Z,26.99
2023-04-12T07:51:07.673Z,26.99
2023-04-12T07:52:09.664Z,27.01
2023-04-12T07:53:28.637Z,27.05
2023-04-12T07:54:30.849Z,27.00
2023-04-12T07:55:33.078Z,26.98
2023-04-12T07:56:36.290Z,27.00
2023-04-12T07:57:38.237Z,27.01
2023-04-12T07:58:40.863Z,27.00
2023-04-12T07:59:42.987Z,27.01
2023-04-12T08:00:47.028Z,27.00
2023-04-12T08:01:48.975Z,27.00
2023-04-12T08:02:51.306Z,27.00
2023-04-12T08:03:53.439Z,27.01
2023-04-12T08:04:55.822Z,26.98
2023-04-12T08:05:57.784Z,27.00
2023-04-12T08:06:59.799Z,27.01
2023-04-12T08:08:02.154Z,27.00
2023-04-12T08:09:04.309Z,26.99
2023-04-12T08:10:07.886Z,26.98
2023-04-12T08:11:09.871Z,26.98
2023-04-12T08:12:12.151Z,26.98
2023-04-12T08:13:14.581Z,27.00
2023-04-12T08:14:16.502Z,27.00
2023-04-12T08:15:18.574Z,27.00
2023-04-12T08:16:21.103Z,27.01
2023-04-12T08:17:23.255Z,27.00
2023-04-12T08:18:25.391Z,26.99
2023-04-12T08:19:27.571Z,27.00
2023-04-12T08:20:30.438Z,27.01
2023-04-12T08:21:33.649Z,27.02
2023-04-12T08:22:35.905Z,27.01
2023-04-12T08:23:38.213Z,26.99
2023-04-12T08:24:40.152Z,27.00
2023-04-12T08:25:42.189Z,27.00
2023-04-12T08:26:44.020Z,26.99
2023-04-12T08:27:46.207Z,26.98
2023-04-12T08:28:48.653Z,27.00
2023-04-12T08:29:51.507Z,27.00
2023-04-12T08:30:53.652Z,27.00
2023-04-12T08:31:56.316Z,26.99
2023-04-12T08:32:58.444Z,26.98
2023-04-12T08:34:00.499Z,26.97
2023-04-12T08:35:05.735Z,26.99
2023-04-12T08:36:08.535Z,27.00
2023-04-12T08:37:11.007Z,26.97
2023-04-12T08:38:14.852Z,26.98
2023-04-12T08:39:17.435Z,26.97
2023-04-12T08:40:21.982Z,27.00
2023-04-12T08:41:25.072Z,26.98
2023-04-12T08:42:28.012Z,26.97
2023-04-12T08:43:33.084Z,26.98
2023-04-12T08:44:40.167Z,27.00
2023-04-12T08:45:42.517Z,26.99
2023-04-12T08:46:45.980Z,26.96
2023-04-12T08:47:48.088Z,26.98
2023-04-12T08:48:54.923Z,27.01
2023-04-12T08:49:57.569Z,26.99
2023-04-12T08:51:00.979Z,26.98
2023-04-12T08:52:12.572Z,27.01
2023-04-12T08:53:14.814Z,26.98
2023-04-12T08:54:16.714Z,26.98
2023-04-12T08:55:18.616Z,26.98
2023-04-12T08:56:23.254Z,26.98
2023-04-12T08:57:26.442Z,26.98
2023-04-12T08:58:30.670Z,26.99
2023-04-12T08:59:37.735Z,27.00
2023-04-12T09:00:41.444Z,26.98
2023-04-12T09:01:43.768Z,26.98
2023-04-12T09:02:47.284Z,26.99
2023-04-12T09:03:49.606Z,27.00
2023-04-12T09:04:54.071Z,26.99
2023-04-12T09:05:56.560Z,26.99
2023-04-12T09:06:58.922Z,26.98
2023-04-12T09:08:00.943Z,26.99
2023-04-12T09:09:08.034Z,26.98
2023-04-12T09:10:10.637Z,26.98
2023-04-12T09:11:27.293Z,27.04
2023-04-12T09:12:29.239Z,27.01
2023-04-12T09:13:35.604Z,27.01
2023-04-12T09:14:39.823Z,26.99
2023-04-12T09:15:51.294Z,27.06
2023-04-12T09:16:53.275Z,27.02
2023-04-12T09:18:08.442Z,27.07
2023-04-12T09:19:10.474Z,27.03
2023-04-12T09:20:19.305Z,27.05
2023-04-12T09:21:21.393Z,27.05
2023-04-12T09:22:37.565Z,27.08
2023-04-12T09:23:39.674Z,27.05
2023-04-12T09:24:53.443Z,27.07
2023-04-12T09:25:55.502Z,27.05
2023-04-12T09:27:07.506Z,27.07
2023-04-12T09:28:26.093Z,27.11
2023-04-12T09:29:28.629Z,27.03
2023-04-12T09:30:30.517Z,27.05
2023-04-12T09:31:32.567Z,27.05
2023-04-12T09:32:34.695Z,27.03
2023-04-12T09:33:39.523Z,27.03
2023-04-12T09:34:57.733Z,27.10
2023-04-12T09:36:05.212Z,27.10
2023-04-12T09:37:17.315Z,27.09
2023-04-12T09:38:19.488Z,27.05
2023-04-12T09:39:31.634Z,27.08
2023-04-12T09:40:36.386Z,27.03
2023-04-12T09:41:38.773Z,27.06
2023-04-12T09:42:56.680Z,27.10
2023-04-12T09:44:01.658Z,27.08
2023-04-12T09:45:26.163Z,27.13
2023-04-12T09:46:28.693Z,27.06
2023-04-12T09:47:41.237Z,27.09
2023-04-12T09:48:54.216Z,27.09
2023-04-12T09:49:56.204Z,27.05
2023-04-12T09:51:00.352Z,27.07
2023-04-12T09:52:02.713Z,27.03
2023-04-12T09:53:18.549Z,27.10
2023-04-12T09:54:21.359Z,27.06
2023-04-12T09:55:28.986Z,27.08
2023-04-12T09:56:35.833Z,27.06
2023-04-12T09:57:43.338Z,27.09
2023-04-12T09:58:47.344Z,27.06
2023-04-12T09:59:52.730Z,27.05
2023-04-12T10:00:59.217Z,27.06
2023-04-12T10:02:01.699Z,27.06
2023-04-12T10:03:04.658Z,27.06
2023-04-12T10:04:08.897Z,27.07
2023-04-12T10:05:13.427Z,27.05
2023-04-12T10:06:16.926Z,27.06
2023-04-12T10:07:19.648Z,27.07
2023-04-12T10:08:29.705Z,27.06
2023-04-12T10:09:33.335Z,27.09
2023-04-12T10:10:36.073Z,27.05
2023-04-12T10:11:42.167Z,27.07
2023-04-12T10:12:48.568Z,27.09
2023-04-12T10:13:52.352Z,27.10
2023-04-12T10:14:55.821Z,27.08
2023-04-12T10:15:59.570Z,27.07
2023-04-12T10:17:04.843Z,27.09
2023-04-12T10:18:08.439Z,27.10
2023-04-12T10:19:13.132Z,27.11
2023-04-12T10:20:17.312Z,27.11
2023-04-12T10:21:19.709Z,27.11
2023-04-12T10:22:22.457Z,27.10
2023-04-12T10:23:24.397Z,27.09
2023-04-12T10:24:29.255Z,27.12
2023-04-12T10:25:32.031Z,27.10
2023-04-12T10:26:34.710Z,27.09
2023-04-12T10:27:37.380Z,27.10
2023-04-12T10:28:39.434Z,27.11
2023-04-12T10:29:43.203Z,27.12
2023-04-12T10:30:48.325Z,27.13
2023-04-12T10:31:51.090Z,27.14
2023-04-12T10:33:05.486Z,27.18
2023-04-12T10:34:07.642Z,27.14
2023-04-12T10:35:11.914Z,27.15
2023-04-12T10:36:14.365Z,27.13
2023-04-12T10:37:16.273Z,27.13
2023-04-12T10:38:19.289Z,27.14
2023-04-12T10:39:54.505Z,27.24
2023-04-12T10:41:14.251Z,27.23
2023-04-12T10:42:29.603Z,27.20
2023-04-12T10:43:31.623Z,27.15
2023-04-12T10:44:33.712Z,27.14
2023-04-12T10:45:37.289Z,27.16
2023-04-12T10:46:45.839Z,27.19
2023-04-12T10:47:53.384Z,27.16
2023-04-12T10:48:55.636Z,27.17
2023-04-12T10:50:27.537Z,27.25
2023-04-12T10:51:29.440Z,27.19
2023-04-12T10:52:31.584Z,27.15
2023-04-12T10:53:33.756Z,27.13
2023-04-12T10:54:36.753Z,27.13
2023-04-12T10:55:44.807Z,27.18
2023-04-12T10:56:48.108Z,27.17
2023-04-12T10:57:50.496Z,27.15
2023-04-12T10:58:52.549Z,27.17
2023-04-12T10:59:59.702Z,27.18
2023-04-12T11:01:10.886Z,27.21
2023-04-12T11:02:13.802Z,27.19
2023-04-12T11:03:16.410Z,27.18
2023-04-12T11:04:21.982Z,27.19
2023-04-12T11:05:24.570Z,27.18
2023-04-12T11:07:09.775Z,27.29
2023-04-12T11:08:13.044Z,27.22
2023-04-12T11:09:18.615Z,27.23
2023-04-12T11:10:22.111Z,27.19
2023-04-12T11:11:27.505Z,27.19
2023-04-12T11:12:29.614Z,27.19
2023-04-12T11:13:39.343Z,27.20
2023-04-12T11:14:48.658Z,27.21
2023-04-12T11:15:59.085Z,27.21
2023-04-12T11:17:07.485Z,27.22
2023-04-12T11:18:10.256Z,27.18
2023-04-12T11:19:12.304Z,27.19
2023-04-12T11:20:14.309Z,27.19
2023-04-12T11:21:19.787Z,27.18
2023-04-12T11:22:27.882Z,27.20
2023-04-12T11:23:31.171Z,27.19
2023-04-12T11:24:34.087Z,27.18
2023-04-12T11:25:37.068Z,27.18
2023-04-12T11:26:40.200Z,27.18
2023-04-12T11:27:51.468Z,27.24
2023-04-12T11:28:55.868Z,27.18
2023-04-12T11:30:00.861Z,27.18
2023-04-12T11:31:03.763Z,27.20
2023-04-12T11:32:16.700Z,27.21
2023-04-12T11:33:39.981Z,27.26
2023-04-12T11:34:47.254Z,27.24
2023-04-12T11:35:49.294Z,27.20
2023-04-12T11:36:55.450Z,27.20
2023-04-12T11:37:58.934Z,27.18
2023-04-12T11:39:00.890Z,27.19
2023-04-12T11:40:05.753Z,27.19
2023-04-12T11:41:10.360Z,27.19
2023-04-12T11:42:20.870Z,27.21
2023-04-12T11:43:23.312Z,27.20
2023-04-12T11:44:25.875Z,27.20
2023-04-12T11:45:29.490Z,27.20
2023-04-12T11:46:35.675Z,27.23
2023-04-12T11:47:43.965Z,27.23
2023-04-12T11:48:47.440Z,27.23
2023-04-12T11:49:53.281Z,27.23
2023-04-12T11:51:10.287Z,27.20
2023-04-12T11:52:14.360Z,27.24
2023-04-12T11:53:18.295Z,27.22
2023-04-12T11:54:20.239Z,27.22
2023-04-12T11:55:23.397Z,27.23
2023-04-12T11:56:33.505Z,27.25
2023-04-12T11:57:35.620Z,27.22
2023-04-12T11:58:37.532Z,27.23
2023-04-12T11:59:39.709Z,27.23
2023-04-12T12:00:46.014Z,27.24
2023-04-12T12:01:51.769Z,27.27
2023-04-12T12:03:06.645Z,27.24
2023-04-12T12:04:09.579Z,27.26
2023-04-12T12:05:11.913Z,27.25
2023-04-12T12:06:15.827Z,27.23
2023-04-12T12:07:19.467Z,27.26
2023-04-12T12:08:22.172Z,27.23
2023-04-12T12:09:26.349Z,27.24
2023-04-12T12:10:42.099Z,27.25
2023-04-12T12:11:49.622Z,27.26
2023-04-12T12:12:51.548Z,27.26
2023-04-12T12:13:56.468Z,27.26
2023-04-12T12:15:00.868Z,27.27
2023-04-12T12:16:07.546Z,27.28
2023-04-12T12:17:15.403Z,27.29
2023-04-12T12:18:17.422Z,27.27
2023-04-12T12:19:28.072Z,27.30
2023-04-12T12:20:30.833Z,27.26
2023-04-12T12:21:32.776Z,27.26
2023-04-12T12:22:35.046Z,27.24
2023-04-12T12:23:37.490Z,27.25
2023-04-12T12:24:45.867Z,27.31
2023-04-12T12:25:47.708Z,27.29
2023-04-12T12:26:51.602Z,27.29
2023-04-12T12:27:59.550Z,27.30
2023-04-12T12:29:01.582Z,27.29
2023-04-12T12:30:07.379Z,27.29
2023-04-12T12:31:12.857Z,27.30
2023-04-12T12:32:15.011Z,27.27
2023-04-12T12:33:24.744Z,27.31
2023-04-12T12:34:34.709Z,27.32
2023-04-12T12:35:37.275Z,27.29
2023-04-12T12:36:39.290Z,27.30
2023-04-12T12:37:53.308Z,27.34
2023-04-12T12:38:55.499Z,27.29
2023-04-12T12:40:13.665Z,27.35
2023-04-12T12:41:21.315Z,27.34
2023-04-12T12:42:23.268Z,27.28
2023-04-12T12:43:25.719Z,27.27
2023-04-12T12:44:27.640Z,27.28
2023-04-12T12:45:32.914Z,27.30
2023-04-12T12:48:15.941Z,27.41
2023-04-12T12:49:19.060Z,27.31
2023-04-12T12:50:25.121Z,27.33
2023-04-12T12:51:27.880Z,27.32
2023-04-12T12:52:29.778Z,27.31
2023-04-12T12:53:31.683Z,27.32
2023-04-12T12:54:41.008Z,27.31
2023-04-12T12:55:43.495Z,27.32
2023-04-12T12:56:46.308Z,27.31
2023-04-12T12:58:06.170Z,27.33
2023-04-12T12:59:09.130Z,27.33
2023-04-12T13:00:15.032Z,27.33
2023-04-12T13:01:17.105Z,27.34
2023-04-12T13:02:19.926Z,27.33
2023-04-12T13:03:22.251Z,27.33
2023-04-12T13:04:24.782Z,27.32
2023-04-12T13:05:26.763Z,27.33
2023-04-12T13:06:28.955Z,27.32
2023-04-12T13:07:31.201Z,27.35
2023-04-12T13:08:35.709Z,27.34
2023-04-12T13:09:37.652Z,27.36
2023-04-12T13:10:40.207Z,27.37
2023-04-12T13:11:42.098Z,27.37
2023-04-12T13:12:44.596Z,27.35
2023-04-12T13:13:46.776Z,27.37
2023-04-12T13:14:49.442Z,27.33
2023-04-12T13:15:52.921Z,27.36
2023-04-12T13:16:55.216Z,27.39
2023-04-12T13:17:57.188Z,27.37
2023-04-12T13:18:59.490Z,27.38
2023-04-12T13:20:01.478Z,27.37
2023-04-12T13:21:03.648Z,27.37
2023-04-12T13:22:07.424Z,27.38
2023-04-12T13:23:09.907Z,27.38
2023-04-12T13:24:12.421Z,27.39
2023-04-12T13:25:15.633Z,27.39
2023-04-12T13:26:17.803Z,27.38
2023-04-12T13:27:20.020Z,27.40
2023-04-12T13:28:22.216Z,27.40
2023-04-12T13:29:24.067Z,27.41
2023-04-12T13:30:25.932Z,27.38
2023-04-12T13:31:27.971Z,27.40
2023-04-12T13:32:30.182Z,27.39
2023-04-12T13:33:32.666Z,27.41
2023-04-12T13:34:35.133Z,27.40
2023-04-12T13:35:37.065Z,27.41
2023-04-12T13:36:39.016Z,27.37
2023-04-12T13:37:42.228Z,27.41
2023-04-12T13:38:44.511Z,27.41
2023-04-12T13:39:46.785Z,27.41
2023-04-12T13:40:49.143Z,27.43
2023-04-12T13:41:51.885Z,27.40
2023-04-12T13:42:54.107Z,27.40
2023-04-12T13:43:55.973Z,27.41
2023-04-12T13:44:58.025Z,27.44
2023-04-12T13:46:00.324Z,27.42
2023-04-12T13:47:03.449Z,27.44
2023-04-12T13:48:05.439Z,27.43
2023-04-12T13:49:07.371Z,27.42
2023-04-12T13:50:09.926Z,27.43
2023-04-12T13:51:11.993Z,27.43